Time;durP1;ratioP1;P1;durP2;ratioP2;P2;SDS_P1;SDS_P2;PMS_P1;PMS_P2;Temp;Humidity;BMP_temperature;BMP_pressure;BME280_temperature;BME280_humidity;BME280_pressure;Samples;Min_cycle;Max_cycle;Signal;HPM_P1;HPM_P2
2023/10/28 00:02:00;;;;;;;131.88;26.73;;;9.70;99.90;;;;;;4982022;28;20046;-68
2023/10/28 00:04:25;;;;;;;85.60;22.63;;;9.70;99.90;;;;;;4978444;28;20758;-69
2023/10/28 00:06:52;;;;;;;74.00;22.45;;;9.80;99.90;;;;;;4972730;28;20042;-68
2023/10/28 00:09:20;;;;;;;94.53;22.08;;;9.80;99.90;;;;;;4971030;28;20047;-68
2023/10/28 00:11:46;;;;;;;86.97;23.33;;;9.80;99.90;;;;;;4972647;28;20042;-68
2023/10/28 00:14:12;;;;;;;92.55;23.05;;;9.80;99.90;;;;;;4955056;28;20035;-68
2023/10/28 00:16:38;;;;;;;89.00;23.73;;;9.80;99.90;;;;;;4982291;28;20508;-69
2023/10/28 00:19:07;;;;;;;84.82;23.45;;;9.90;99.90;;;;;;4971137;28;20073;-69
2023/10/28 00:21:33;;;;;;;99.78;24.25;;;9.80;99.90;;;;;;4971208;28;20514;-70
2023/10/28 00:23:58;;;;;;;92.13;24.00;;;9.80;99.90;;;;;;4973797;28;20046;-67
2023/10/28 00:26:24;;;;;;;100.78;25.30;;;9.80;99.90;;;;;;4989799;28;20196;-69
2023/10/28 00:28:50;;;;;;;85.50;24.63;;;9.80;99.90;;;;;;4973041;28;20427;-70
2023/10/28 00:31:19;;;;;;;86.78;23.80;;;9.70;99.90;;;;;;4970211;28;20046;-70
2023/10/28 00:33:45;;;;;;;98.90;24.93;;;9.60;99.90;;;;;;4970057;28;21851;-68
2023/10/28 00:36:11;;;;;;;99.53;25.23;;;9.70;99.90;;;;;;4979584;28;20038;-69
2023/10/28 00:38:37;;;;;;;104.07;24.42;;;9.60;99.90;;;;;;4961063;28;20070;-69
2023/10/28 00:41:02;;;;;;;90.70;23.55;;;9.50;99.90;;;;;;4970712;28;20038;-69
2023/10/28 00:43:28;;;;;;;107.63;25.45;;;9.60;99.90;;;;;;4973712;28;20485;-68
2023/10/28 00:45:56;;;;;;;89.55;23.58;;;9.60;99.90;;;;;;4957422;28;20045;-67
2023/10/28 00:48:22;;;;;;;93.25;25.27;;;9.50;99.90;;;;;;4969795;28;20031;-69
2023/10/28 00:50:48;;;;;;;118.97;27.92;;;9.60;99.90;;;;;;4970235;28;20065;-69
2023/10/28 00:53:15;;;;;;;112.35;27.27;;;9.60;99.90;;;;;;4970279;28;20101;-69
2023/10/28 00:55:41;;;;;;;111.18;26.85;;;9.70;99.90;;;;;;4989248;28;20074;-69
2023/10/28 00:58:09;;;;;;;116.10;29.02;;;9.60;99.90;;;;;;4956722;28;20061;-69
2023/10/28 01:00:35;;;;;;;108.03;27.75;;;9.70;99.90;;;;;;4987590;28;20042;-69
2023/10/28 01:03:02;;;;;;;122.55;31.02;;;9.70;99.90;;;;;;4967187;28;20061;-68
2023/10/28 01:05:30;;;;;;;125.07;28.48;;;9.70;99.90;;;;;;4981715;28;20502;-67
2023/10/28 01:07:58;;;;;;;127.47;29.63;;;9.70;99.90;;;;;;4969267;28;20050;-68
2023/10/28 01:10:28;;;;;;;119.07;29.40;;;9.80;99.90;;;;;;4982909;28;20046;-67
2023/10/28 01:12:54;;;;;;;149.82;33.03;;;9.70;99.90;;;;;;4970158;28;20116;-67
2023/10/28 01:15:20;;;;;;;112.93;30.50;;;9.70;99.90;;;;;;4972167;28;20046;-67
2023/10/28 01:17:47;;;;;;;109.53;29.15;;;9.70;99.90;;;;;;4970896;28;20557;-69
2023/10/28 01:20:13;;;;;;;131.85;31.65;;;9.80;99.90;;;;;;4969939;28;20082;-67
2023/10/28 01:22:38;;;;;;;115.88;30.13;;;9.80;99.90;;;;;;4969700;28;20070;-68
2023/10/28 01:25:04;;;;;;;114.90;29.25;;;9.80;99.90;;;;;;4985775;28;20050;-68
2023/10/28 01:27:30;;;;;;;98.97;29.50;;;9.80;99.90;;;;;;4977947;28;20062;-68
2023/10/28 01:29:56;;;;;;;132.07;31.20;;;9.80;99.90;;;;;;4972391;28;20125;-68
2023/10/28 01:32:21;;;;;;;146.00;32.72;;;9.80;99.90;;;;;;4971714;28;20035;-67
2023/10/28 01:34:54;;;;;;;118.82;32.00;;;9.90;99.90;;;;;;4970063;28;20046;-67
2023/10/28 01:37:21;;;;;;;146.48;31.92;;;9.80;99.90;;;;;;4985680;28;20074;-67
2023/10/28 01:39:48;;;;;;;102.53;28.70;;;9.80;99.90;;;;;;4970838;28;20042;-67
2023/10/28 01:42:16;;;;;;;113.20;29.30;;;9.70;99.90;;;;;;4972804;28;20035;-68
2023/10/28 01:44:42;;;;;;;124.32;31.92;;;9.80;99.90;;;;;;4977874;28;20054;-67
2023/10/28 01:47:08;;;;;;;116.60;31.38;;;9.70;99.90;;;;;;4971723;28;20056;-67
2023/10/28 01:49:37;;;;;;;100.28;29.17;;;9.60;99.90;;;;;;4970660;28;20034;-67
2023/10/28 01:52:04;;;;;;;91.82;29.05;;;9.60;99.90;;;;;;4954318;28;20062;-67
2023/10/28 01:54:30;;;;;;;95.78;28.92;;;9.60;99.90;;;;;;4970591;28;20049;-67
2023/10/28 01:56:57;;;;;;;87.70;27.35;;;9.60;99.90;;;;;;4970260;28;20126;-68
2023/10/28 01:59:25;;;;;;;106.40;29.52;;;9.60;99.90;;;;;;4956802;28;20101;-67
2023/10/28 02:01:50;;;;;;;99.78;28.13;;;9.60;99.90;;;;;;4969340;28;20081;-68
2023/10/28 02:04:16;;;;;;;87.10;26.98;;;9.60;99.90;;;;;;4952001;28;21832;-68
2023/10/28 02:06:41;;;;;;;88.07;27.15;;;9.60;99.90;;;;;;4967046;28;20041;-67
2023/10/28 02:09:08;;;;;;;97.57;28.33;;;9.60;99.90;;;;;;4989115;28;20034;-68
2023/10/28 02:11:34;;;;;;;97.32;28.20;;;9.60;99.90;;;;;;4965699;28;20325;-69
2023/10/28 02:14:00;;;;;;;98.32;27.70;;;9.50;99.90;;;;;;4963297;28;20499;-67
2023/10/28 02:16:25;;;;;;;87.00;27.38;;;9.40;99.90;;;;;;4979913;28;20132;-67
2023/10/28 02:18:51;;;;;;;87.28;26.85;;;9.50;99.90;;;;;;4969137;28;20156;-67
2023/10/28 02:21:20;;;;;;;104.32;28.60;;;9.40;99.90;;;;;;4969630;28;20089;-67
2023/10/28 02:23:45;;;;;;;90.25;27.23;;;9.50;99.90;;;;;;4968591;28;20106;-67
2023/10/28 02:26:11;;;;;;;87.18;27.23;;;9.40;99.90;;;;;;4979974;28;20133;-67
2023/10/28 02:28:36;;;;;;;100.20;29.15;;;9.40;99.90;;;;;;4973157;28;20038;-67
2023/10/28 02:31:02;;;;;;;82.85;25.83;;;9.40;99.90;;;;;;4971758;28;20038;-66
2023/10/28 02:33:27;;;;;;;84.00;25.40;;;9.30;99.90;;;;;;4970788;28;20077;-66
2023/10/28 02:35:53;;;;;;;83.45;24.80;;;9.30;99.90;;;;;;4969636;28;20101;-68
2023/10/28 02:38:19;;;;;;;80.72;25.33;;;9.30;99.90;;;;;;4944808;28;20629;-67
2023/10/28 02:40:46;;;;;;;79.97;25.65;;;9.20;99.90;;;;;;4977042;28;20371;-68
2023/10/28 02:43:12;;;;;;;95.10;27.25;;;9.10;99.90;;;;;;4969195;28;20042;-67
2023/10/28 02:45:38;;;;;;;114.68;28.98;;;9.20;99.90;;;;;;4972217;28;20113;-67
2023/10/28 02:48:04;;;;;;;86.20;24.98;;;9.00;99.90;;;;;;4973886;28;20125;-67
2023/10/28 02:50:29;;;;;;;84.93;25.33;;;9.00;99.90;;;;;;4969157;28;20138;-66
2023/10/28 02:52:55;;;;;;;79.32;24.55;;;9.10;99.90;;;;;;4967716;28;20046;-67
2023/10/28 02:55:21;;;;;;;85.95;25.77;;;9.00;99.90;;;;;;4968509;28;20070;-66
2023/10/28 02:57:47;;;;;;;99.68;26.23;;;9.10;99.90;;;;;;4970947;28;20069;-68
2023/10/28 03:00:13;;;;;;;71.78;23.65;;;9.00;99.90;;;;;;4967248;28;20096;-66
2023/10/28 03:02:38;;;;;;;68.50;23.73;;;9.10;99.90;;;;;;4984549;28;20566;-66
2023/10/28 03:05:05;;;;;;;85.45;24.17;;;9.00;99.90;;;;;;4983490;28;20384;-67
2023/10/28 03:07:30;;;;;;;81.63;25.02;;;9.10;99.90;;;;;;4969908;28;20081;-66
2023/10/28 03:09:56;;;;;;;78.00;25.02;;;9.10;99.90;;;;;;4953118;28;20081;-67
2023/10/28 03:12:22;;;;;;;94.18;25.83;;;9.10;99.90;;;;;;4953521;28;20057;-67
2023/10/28 03:14:47;;;;;;;69.40;23.63;;;9.10;99.90;;;;;;4974384;28;20526;-67
2023/10/28 03:17:13;;;;;;;92.05;25.05;;;9.10;99.90;;;;;;4973655;28;20497;-66
2023/10/28 03:19:38;;;;;;;80.00;23.45;;;9.10;99.90;;;;;;4972179;28;20374;-67
2023/10/28 03:22:04;;;;;;;77.82;22.98;;;9.10;99.90;;;;;;4973981;28;20050;-67
2023/10/28 03:24:30;;;;;;;66.13;21.73;;;9.00;99.90;;;;;;4975010;28;20861;-68
2023/10/28 03:26:55;;;;;;;67.53;22.65;;;9.10;99.90;;;;;;4989242;28;20042;-66
2023/10/28 03:29:21;;;;;;;67.80;23.45;;;9.00;99.90;;;;;;4975422;28;20042;-67
2023/10/28 03:31:47;;;;;;;73.30;22.85;;;9.10;99.90;;;;;;4973749;28;20054;-67
2023/10/28 03:34:13;;;;;;;68.57;21.55;;;9.10;99.90;;;;;;4973197;28;20133;-66
2023/10/28 03:36:39;;;;;;;72.97;23.05;;;9.10;99.90;;;;;;4975815;28;20050;-66
2023/10/28 03:39:05;;;;;;;70.55;21.48;;;9.10;99.90;;;;;;4959363;28;20154;-67
2023/10/28 03:41:32;;;;;;;73.72;22.50;;;9.20;99.90;;;;;;4965503;28;20038;-66
2023/10/28 03:43:58;;;;;;;68.55;22.08;;;9.20;99.90;;;;;;4984326;28;20089;-66
2023/10/28 03:46:25;;;;;;;72.57;22.98;;;9.10;99.90;;;;;;4966047;28;20038;-66
2023/10/28 03:48:50;;;;;;;64.72;22.17;;;9.20;99.90;;;;;;4985517;28;20057;-66
2023/10/28 03:51:16;;;;;;;58.80;22.20;;;9.20;99.90;;;;;;4970457;28;20490;-69
2023/10/28 03:53:43;;;;;;;69.20;23.10;;;9.20;99.90;;;;;;4973412;28;20057;-67
2023/10/28 03:56:10;;;;;;;57.80;21.85;;;9.30;99.90;;;;;;4963900;28;20058;-65
2023/10/28 03:58:35;;;;;;;66.25;22.63;;;9.20;99.90;;;;;;4981161;28;20049;-67
2023/10/28 04:01:01;;;;;;;68.45;22.77;;;9.30;99.90;;;;;;4972957;28;20046;-67
2023/10/28 04:03:26;;;;;;;60.08;22.33;;;9.20;99.90;;;;;;4972045;28;20038;-66
2023/10/28 04:05:54;;;;;;;78.95;24.30;;;9.30;99.90;;;;;;4971713;28;20076;-67
2023/10/28 04:08:19;;;;;;;63.63;22.67;;;9.30;99.90;;;;;;4971630;28;20038;-67
2023/10/28 04:10:46;;;;;;;67.50;23.25;;;9.40;99.90;;;;;;4989636;28;20053;-67
2023/10/28 04:13:12;;;;;;;79.95;24.88;;;9.40;99.90;;;;;;4976605;28;20046;-68
2023/10/28 04:15:39;;;;;;;77.72;24.52;;;9.40;99.90;;;;;;4989920;28;20104;-67
2023/10/28 04:18:05;;;;;;;64.95;22.63;;;9.40;99.90;;;;;;4970870;28;20077;-67
2023/10/28 04:20:31;;;;;;;61.10;22.40;;;9.40;99.90;;;;;;4972951;28;20443;-66
2023/10/28 04:22:57;;;;;;;58.47;20.73;;;9.40;99.90;;;;;;4972732;28;20363;-68
2023/10/28 04:25:22;;;;;;;59.72;22.38;;;9.50;99.90;;;;;;5002802;28;20406;-66
2023/10/28 04:27:49;;;;;;;58.00;21.80;;;9.40;99.90;;;;;;4983659;28;20042;-66
2023/10/28 04:30:15;;;;;;;81.38;23.48;;;9.50;99.90;;;;;;4977711;28;20121;-66
2023/10/28 04:32:41;;;;;;;56.20;21.83;;;9.50;99.90;;;;;;4969094;28;20165;-67
2023/10/28 04:35:07;;;;;;;51.20;21.40;;;9.40;99.90;;;;;;4960266;28;20069;-66
2023/10/28 04:37:32;;;;;;;68.82;23.35;;;9.40;99.90;;;;;;4968294;28;20053;-66
2023/10/28 04:39:58;;;;;;;60.03;21.60;;;9.40;99.90;;;;;;4958625;28;20072;-65
2023/10/28 04:42:24;;;;;;;69.25;22.98;;;9.50;99.90;;;;;;4975171;28;20076;-68
2023/10/28 04:44:49;;;;;;;54.70;21.17;;;9.50;99.90;;;;;;4967904;28;20105;-68
2023/10/28 04:47:15;;;;;;;57.45;21.65;;;9.40;99.90;;;;;;4984430;28;20043;-65
2023/10/28 04:49:41;;;;;;;65.03;21.38;;;9.50;99.90;;;;;;4968369;28;20101;-68
2023/10/28 04:52:08;;;;;;;75.53;22.40;;;9.50;99.90;;;;;;4971957;28;20425;-66
2023/10/28 04:54:35;;;;;;;56.63;21.27;;;9.50;99.90;;;;;;4976325;28;20045;-67
2023/10/28 04:57:02;;;;;;;56.72;20.30;;;9.50;99.90;;;;;;4972503;28;20042;-67
2023/10/28 04:59:29;;;;;;;56.28;21.48;;;9.50;99.90;;;;;;4973916;28;20066;-66
2023/10/28 05:01:55;;;;;;;85.95;24.30;;;9.40;99.90;;;;;;4951274;28;20050;-66
2023/10/28 05:04:23;;;;;;;70.78;22.20;;;9.50;99.90;;;;;;4968812;28;20563;-67
2023/10/28 05:06:49;;;;;;;59.60;21.70;;;9.50;99.90;;;;;;4971804;28;20034;-67
2023/10/28 05:09:15;;;;;;;65.90;22.15;;;9.50;99.90;;;;;;4985854;28;20038;-66
2023/10/28 05:11:42;;;;;;;63.55;21.45;;;9.60;99.90;;;;;;4965462;28;20478;-67
2023/10/28 05:14:09;;;;;;;73.00;22.52;;;9.60;99.90;;;;;;4976415;28;20101;-65
2023/10/28 05:16:35;;;;;;;62.80;21.10;;;9.60;99.90;;;;;;4972393;28;20104;-69
2023/10/28 05:19:00;;;;;;;75.68;22.27;;;9.60;99.90;;;;;;4971375;28;20476;-67
2023/10/28 05:21:27;;;;;;;59.00;20.80;;;9.60;99.90;;;;;;4969903;28;20153;-67
2023/10/28 05:23:52;;;;;;;58.33;21.95;;;9.60;99.90;;;;;;4980818;28;20379;-66
2023/10/28 05:26:18;;;;;;;72.55;22.67;;;9.50;99.90;;;;;;4972231;28;20053;-68
2023/10/28 05:28:46;;;;;;;56.13;21.58;;;9.60;99.90;;;;;;4972639;28;20038;-66
2023/10/28 05:31:12;;;;;;;59.00;20.77;;;9.60;99.90;;;;;;4957449;28;20049;-68
2023/10/28 05:33:39;;;;;;;57.40;19.80;;;9.70;99.90;;;;;;4970080;28;20038;-65
2023/10/28 05:36:05;;;;;;;63.95;22.35;;;9.60;99.90;;;;;;4973402;28;20094;-66
2023/10/28 05:38:31;;;;;;;52.33;19.85;;;9.60;99.90;;;;;;4969300;28;20104;-66
2023/10/28 05:40:57;;;;;;;54.17;20.23;;;9.60;99.90;;;;;;4971128;28;20080;-66
2023/10/28 05:43:23;;;;;;;49.38;18.95;;;9.60;99.90;;;;;;4978475;28;20502;-66
2023/10/28 05:45:48;;;;;;;54.05;20.08;;;9.60;99.90;;;;;;4971861;28;20308;-68
2023/10/28 05:48:14;;;;;;;63.00;21.75;;;9.60;99.90;;;;;;4971899;28;20125;-68
2023/10/28 05:50:39;;;;;;;66.65;21.38;;;9.70;99.90;;;;;;4956659;28;20045;-65
2023/10/28 05:53:05;;;;;;;50.88;19.52;;;9.60;99.90;;;;;;4953763;28;20545;-66
2023/10/28 05:55:31;;;;;;;45.85;18.33;;;9.60;99.90;;;;;;4979908;28;20124;-65
2023/10/28 05:57:57;;;;;;;46.30;18.58;;;9.60;99.90;;;;;;4970347;28;20086;-66
2023/10/28 06:00:23;;;;;;;45.03;18.30;;;9.60;99.90;;;;;;4967697;28;20038;-66
2023/10/28 06:02:49;;;;;;;53.13;19.77;;;9.60;99.90;;;;;;4975328;28;20042;-68
2023/10/28 06:05:15;;;;;;;42.58;17.45;;;9.70;99.90;;;;;;4966133;28;20034;-67
2023/10/28 06:07:47;;;;;;;57.40;18.52;;;9.70;99.90;;;;;;4971985;28;20421;-69
2023/10/28 06:10:13;;;;;;;43.80;18.45;;;9.70;99.90;;;;;;4971938;28;20657;-65
2023/10/28 06:12:38;;;;;;;42.08;16.77;;;9.60;99.90;;;;;;4985844;28;20200;-66
2023/10/28 06:15:04;;;;;;;47.92;16.95;;;9.60;99.90;;;;;;4969787;28;20376;-66
2023/10/28 06:17:30;;;;;;;40.85;15.88;;;9.70;99.90;;;;;;4982410;28;20497;-66
2023/10/28 06:19:55;;;;;;;35.22;15.63;;;9.60;99.90;;;;;;4978154;28;20057;-65
2023/10/28 06:22:21;;;;;;;40.03;15.65;;;9.70;99.90;;;;;;4968667;28;20102;-66
2023/10/28 06:24:49;;;;;;;47.22;15.90;;;9.70;99.90;;;;;;4972843;28;20049;-66
2023/10/28 06:27:14;;;;;;;38.88;14.02;;;9.80;99.90;;;;;;4965756;28;20034;-69
2023/10/28 06:29:40;;;;;;;41.08;14.88;;;9.70;99.90;;;;;;4962488;28;20136;-67
2023/10/28 06:32:09;;;;;;;32.85;14.50;;;9.70;99.90;;;;;;4966276;28;20042;-66
2023/10/28 06:34:35;;;;;;;42.90;15.20;;;9.70;99.90;;;;;;4982905;28;20038;-65
2023/10/28 06:37:01;;;;;;;33.33;14.07;;;9.70;99.90;;;;;;4964018;28;20057;-69
2023/10/28 06:39:27;;;;;;;29.95;12.98;;;9.80;99.90;;;;;;4971923;28;20053;-66
2023/10/28 06:41:52;;;;;;;32.58;13.00;;;9.80;99.90;;;;;;4952942;28;20030;-65
2023/10/28 06:44:19;;;;;;;33.20;13.45;;;9.70;99.90;;;;;;4975705;28;20157;-67
2023/10/28 06:46:45;;;;;;;41.67;13.68;;;9.70;99.90;;;;;;4975067;28;20455;-66
2023/10/28 06:49:11;;;;;;;26.58;13.15;;;9.80;99.90;;;;;;4977707;28;20038;-67
2023/10/28 06:51:37;;;;;;;28.05;12.75;;;9.70;99.90;;;;;;4978185;28;20491;-66
2023/10/28 06:54:04;;;;;;;30.20;12.98;;;9.70;99.90;;;;;;4978024;28;20184;-67
2023/10/28 06:56:30;;;;;;;25.40;11.95;;;9.80;99.90;;;;;;4975770;28;20362;-66
2023/10/28 06:58:56;;;;;;;25.25;11.98;;;9.80;99.90;;;;;;4977815;28;20503;-68
2023/10/28 07:01:21;;;;;;;27.30;12.23;;;9.80;99.90;;;;;;4976947;28;20121;-67
2023/10/28 07:03:47;;;;;;;25.85;11.27;;;9.90;99.90;;;;;;4976813;28;20052;-68
2023/10/28 07:06:17;;;;;;;27.75;12.10;;;9.80;99.90;;;;;;4973502;28;20457;-68
2023/10/28 07:08:43;;;;;;;24.30;10.77;;;9.80;99.90;;;;;;4976732;28;20097;-67
2023/10/28 07:11:13;;;;;;;23.00;11.18;;;9.80;99.90;;;;;;4977650;28;20049;-67
2023/10/28 07:13:39;;;;;;;25.65;10.50;;;9.80;99.90;;;;;;4977583;28;20038;-67
2023/10/28 07:16:05;;;;;;;22.88;10.40;;;9.80;99.90;;;;;;4981390;28;20046;-66
2023/10/28 07:18:31;;;;;;;24.33;10.52;;;9.80;99.90;;;;;;4985187;28;20077;-69
2023/10/28 07:20:58;;;;;;;25.25;10.65;;;9.80;99.90;;;;;;4980634;28;20136;-68
2023/10/28 07:23:29;;;;;;;21.38;10.05;;;9.80;99.90;;;;;;4974826;28;20050;-66
2023/10/28 07:25:54;;;;;;;26.17;9.93;;;9.80;99.90;;;;;;4994027;28;20042;-68
2023/10/28 07:28:20;;;;;;;21.98;9.85;;;9.80;99.90;;;;;;4976977;28;20035;-68
2023/10/28 07:30:48;;;;;;;21.10;9.38;;;9.80;99.90;;;;;;5005988;28;20049;-68
2023/10/28 07:33:14;;;;;;;23.42;9.77;;;9.80;99.90;;;;;;4983226;28;20038;-66
2023/10/28 07:35:48;;;;;;;16.95;9.32;;;9.80;99.90;;;;;;4976623;28;20501;-67
2023/10/28 07:38:18;;;;;;;17.73;8.88;;;9.80;99.90;;;;;;4967889;28;20074;-68
2023/10/28 07:40:44;;;;;;;18.63;8.80;;;9.90;99.90;;;;;;4976118;28;20660;-68
2023/10/28 07:43:14;;;;;;;18.67;9.45;;;9.90;99.90;;;;;;4958736;28;20114;-68
2023/10/28 07:45:41;;;;;;;18.65;8.65;;;10.00;99.90;;;;;;4992587;28;20402;-68
2023/10/28 07:48:07;;;;;;;17.33;7.95;;;9.90;99.90;;;;;;4976541;28;20050;-68
2023/10/28 07:50:36;;;;;;;17.90;8.00;;;10.00;99.90;;;;;;4979084;28;20049;-69
2023/10/28 07:53:04;;;;;;;14.70;7.00;;;10.00;99.90;;;;;;4978350;28;20121;-69
2023/10/28 07:55:30;;;;;;;17.40;7.82;;;10.00;99.90;;;;;;4977878;28;20101;-68
2023/10/28 07:57:56;;;;;;;15.70;7.78;;;10.00;99.90;;;;;;4965061;28;20387;-68
2023/10/28 08:00:23;;;;;;;18.05;7.88;;;9.90;99.90;;;;;;4972408;28;20050;-68
2023/10/28 08:02:49;;;;;;;18.25;7.82;;;9.90;99.90;;;;;;4957398;28;20828;-70
2023/10/28 08:05:16;;;;;;;16.23;7.65;;;9.90;99.90;;;;;;4956146;28;20124;-67
2023/10/28 08:07:42;;;;;;;19.77;7.85;;;10.00;99.90;;;;;;4955369;28;20034;-68
2023/10/28 08:10:08;;;;;;;16.50;7.45;;;10.00;99.90;;;;;;4956306;28;20043;-70
2023/10/28 08:12:38;;;;;;;16.30;6.47;;;10.00;99.90;;;;;;4974286;28;20042;-68
2023/10/28 08:15:07;;;;;;;16.33;6.25;;;10.00;99.90;;;;;;4975476;28;20045;-68
2023/10/28 08:17:33;;;;;;;18.15;7.18;;;10.10;99.90;;;;;;4972871;28;20129;-68
2023/10/28 08:19:59;;;;;;;15.43;6.40;;;10.00;99.90;;;;;;4974921;28;20425;-69
2023/10/28 08:22:24;;;;;;;15.23;6.70;;;10.00;99.90;;;;;;4972299;28;20129;-69
2023/10/28 08:24:50;;;;;;;12.52;6.18;;;10.10;99.90;;;;;;4975855;28;20446;-68
2023/10/28 08:27:16;;;;;;;16.88;6.45;;;10.10;99.90;;;;;;4974980;28;20035;-69
2023/10/28 08:29:43;;;;;;;14.15;5.88;;;10.10;99.90;;;;;;4975513;28;20050;-69
2023/10/28 08:32:09;;;;;;;13.93;6.82;;;10.20;99.90;;;;;;4973097;28;20085;-68
2023/10/28 08:34:35;;;;;;;11.50;5.65;;;10.20;99.90;;;;;;4973300;28;20169;-69
2023/10/28 08:37:01;;;;;;;15.52;5.82;;;10.30;99.90;;;;;;4973700;28;20467;-70
2023/10/28 08:39:29;;;;;;;13.95;5.50;;;10.30;99.90;;;;;;4955812;28;20035;-67
2023/10/28 08:41:56;;;;;;;18.98;5.57;;;10.30;99.90;;;;;;4970250;28;20117;-68
2023/10/28 08:44:27;;;;;;;10.52;5.38;;;10.20;99.90;;;;;;4973596;28;20109;-70
2023/10/28 08:46:56;;;;;;;12.80;5.95;;;10.20;99.90;;;;;;4957418;28;20050;-70
2023/10/28 08:49:23;;;;;;;10.80;5.20;;;10.20;99.90;;;;;;4973407;28;20085;-69
2023/10/28 08:51:53;;;;;;;11.90;5.70;;;10.30;99.90;;;;;;4973667;28;20080;-66
2023/10/28 08:54:19;;;;;;;;;;;10.30;99.90;;;;;;4978581;28;20137;-67
2023/10/28 08:56:47;;;;;;;10.27;4.60;;;10.50;99.90;;;;;;4993715;28;20392;-67
2023/10/28 08:59:12;;;;;;;10.65;5.05;;;10.40;99.90;;;;;;4994287;28;20045;-70
2023/10/28 09:01:39;;;;;;;9.65;5.25;;;10.60;99.90;;;;;;4968649;28;20043;-66
2023/10/28 09:04:05;;;;;;;10.25;5.03;;;10.40;99.90;;;;;;4989680;28;20062;-67
2023/10/28 09:06:31;;;;;;;12.35;4.57;;;10.40;99.90;;;;;;4974744;28;20086;-66
2023/10/28 09:08:58;;;;;;;9.35;4.50;;;10.50;99.90;;;;;;4974392;28;20120;-67
2023/10/28 09:11:25;;;;;;;13.13;5.15;;;10.60;99.90;;;;;;4973098;28;20042;-68
2023/10/28 09:13:51;;;;;;;9.85;4.82;;;10.60;99.90;;;;;;4991198;28;20534;-68
2023/10/28 09:16:17;;;;;;;13.70;5.03;;;10.60;99.90;;;;;;4974155;28;20052;-69
2023/10/28 09:18:44;;;;;;;11.38;5.18;;;10.60;99.90;;;;;;4992846;28;20132;-68
2023/10/28 09:21:11;;;;;;;11.88;4.90;;;10.60;99.90;;;;;;4984817;28;20375;-68
2023/10/28 09:23:43;;;;;;;12.95;5.13;;;10.70;99.90;;;;;;4973974;28;20077;-66
2023/10/28 09:26:09;;;;;;;10.93;5.07;;;10.80;99.90;;;;;;4990538;28;20133;-67
2023/10/28 09:28:42;;;;;;;10.02;4.63;;;10.70;99.90;;;;;;4972098;28;20130;-69
2023/10/28 09:31:07;;;;;;;11.27;5.13;;;10.80;99.90;;;;;;4954424;28;20038;-69
2023/10/28 09:33:33;;;;;;;10.52;4.80;;;10.80;99.90;;;;;;4980932;28;20343;-65
2023/10/28 09:35:59;;;;;;;12.35;6.05;;;10.70;99.90;;;;;;4990059;28;20038;-68
2023/10/28 09:38:25;;;;;;;11.15;5.47;;;10.80;99.90;;;;;;4989089;28;20432;-66
2023/10/28 09:40:52;;;;;;;13.05;5.03;;;10.70;99.90;;;;;;4983334;28;20424;-68
2023/10/28 09:43:19;;;;;;;13.20;5.38;;;10.80;99.90;;;;;;4984329;28;20414;-69
2023/10/28 09:45:49;;;;;;;13.80;5.45;;;10.80;99.90;;;;;;4972113;28;20038;-67
2023/10/28 09:48:17;;;;;;;10.17;5.40;;;10.80;99.90;;;;;;4971403;28;20042;-72
2023/10/28 09:50:49;;;;;;;11.70;5.47;;;10.80;99.90;;;;;;4970887;28;20135;-69
2023/10/28 09:53:28;;;;;;;11.30;5.28;;;10.80;99.90;;;;;;4970049;28;20108;-68
2023/10/28 09:55:55;;;;;;;11.52;5.15;;;10.80;99.90;;;;;;4971450;28;20053;-70
2023/10/28 09:58:35;;;;;;;10.50;4.97;;;10.80;99.90;;;;;;4954574;28;20034;-69
2023/10/28 10:01:25;;;;;;;10.55;4.78;;;10.70;99.90;;;;;;4987170;28;20181;-71
2023/10/28 10:04:18;;;;;;;9.02;4.60;;;10.80;99.90;;;;;;4969874;28;20464;-67
2023/10/28 10:06:44;;;;;;;9.85;4.80;;;10.80;99.90;;;;;;5000892;28;20038;-69
2023/10/28 10:09:12;;;;;;;10.65;5.05;;;10.90;99.90;;;;;;4977022;28;20484;-65
2023/10/28 10:11:43;;;;;;;11.68;4.80;;;10.90;99.90;;;;;;4974014;28;20510;-69
2023/10/28 10:14:13;;;;;;;11.65;4.97;;;10.90;99.90;;;;;;4964339;28;20573;-68
2023/10/28 10:17:05;;;;;;;8.80;5.28;;;10.90;99.90;;;;;;4970957;28;20046;-69
2023/10/28 10:19:34;;;;;;;9.90;4.90;;;10.80;99.90;;;;;;4969876;28;20058;-70
2023/10/28 10:22:05;;;;;;;10.32;5.22;;;10.90;99.90;;;;;;4971745;28;20043;-67
2023/10/28 10:24:32;;;;;;;12.10;5.10;;;10.90;99.90;;;;;;4970925;28;20031;-70
2023/10/28 10:26:59;;;;;;;10.07;5.47;;;10.80;99.90;;;;;;4972622;28;20038;-69
2023/10/28 10:29:29;;;;;;;13.57;4.90;;;10.90;99.90;;;;;;4975124;28;20069;-71
2023/10/28 10:31:57;;;;;;;9.55;4.65;;;10.90;99.90;;;;;;4971703;28;20125;-70
2023/10/28 10:34:45;;;;;;;9.93;5.25;;;10.90;99.90;;;;;;4975381;28;20034;-69
2023/10/28 10:37:24;;;;;;;7.80;4.55;;;11.00;99.90;;;;;;4970733;28;20035;-71
2023/10/28 10:39:51;;;;;;;7.95;5.10;;;11.00;99.90;;;;;;4976202;28;20046;-70
2023/10/28 10:42:17;;;;;;;11.70;5.00;;;11.10;99.90;;;;;;4961525;28;20047;-70
2023/10/28 10:44:43;;;;;;;9.32;4.65;;;11.00;99.90;;;;;;4986630;28;20042;-68
2023/10/28 10:47:10;;;;;;;7.95;5.43;;;11.10;99.90;;;;;;4968052;28;20163;-70
2023/10/28 10:49:40;;;;;;;7.47;4.80;;;11.10;99.90;;;;;;4970657;28;20488;-69
2023/10/28 10:52:06;;;;;;;12.93;5.70;;;11.10;99.90;;;;;;4986590;28;20049;-70
2023/10/28 10:54:34;;;;;;;11.15;5.22;;;11.10;99.90;;;;;;4971796;28;20049;-69
2023/10/28 10:57:00;;;;;;;9.63;5.22;;;11.10;99.90;;;;;;4970169;28;20062;-70
2023/10/28 10:59:31;;;;;;;10.88;5.70;;;11.20;99.90;;;;;;4968783;28;20069;-68
2023/10/28 11:01:57;;;;;;;11.13;5.45;;;11.20;99.90;;;;;;4968710;28;20053;-69
2023/10/28 11:04:24;;;;;;;10.07;4.97;;;11.10;99.90;;;;;;4970634;28;20039;-67
2023/10/28 11:06:51;;;;;;;8.93;4.65;;;11.00;99.90;;;;;;4988964;28;20041;-69
2023/10/28 11:09:17;;;;;;;9.70;5.20;;;11.00;99.90;;;;;;4970620;28;20109;-70
2023/10/28 11:11:43;;;;;;;11.73;5.68;;;11.00;99.90;;;;;;4969460;28;20038;-70
2023/10/28 11:14:09;;;;;;;8.50;5.03;;;11.00;99.90;;;;;;4969125;28;20493;-70
2023/10/28 11:16:35;;;;;;;12.40;5.55;;;11.00;99.90;;;;;;4983320;28;20046;-69
2023/10/28 11:19:05;;;;;;;11.15;5.10;;;11.00;99.90;;;;;;4967376;28;20093;-70
2023/10/28 11:21:33;;;;;;;11.05;5.53;;;11.10;99.90;;;;;;4980627;28;20054;-69
2023/10/28 11:23:59;;;;;;;12.32;6.00;;;11.10;99.90;;;;;;4960181;28;20442;-71
2023/10/28 11:26:27;;;;;;;12.80;5.38;;;11.20;99.90;;;;;;4967914;28;20031;-70
2023/10/28 11:28:57;;;;;;;12.98;5.97;;;11.10;99.90;;;;;;4967486;28;20045;-70
2023/10/28 11:31:23;;;;;;;18.90;6.45;;;11.20;99.90;;;;;;4962836;28;20057;-70
2023/10/28 11:33:50;;;;;;;12.55;5.68;;;11.30;99.90;;;;;;4969957;28;20374;-69
2023/10/28 11:36:16;;;;;;;10.43;5.75;;;11.30;99.90;;;;;;4971400;28;20058;-70
2023/10/28 11:38:43;;;;;;;16.58;6.22;;;11.40;99.90;;;;;;4955259;28;20042;-70
2023/10/28 11:41:11;;;;;;;14.10;5.95;;;11.50;99.90;;;;;;4966909;28;20038;-70
2023/10/28 11:43:37;;;;;;;9.90;5.03;;;11.60;99.90;;;;;;4967557;28;20572;-68
2023/10/28 11:46:03;;;;;;;13.60;5.50;;;11.60;99.90;;;;;;4953592;28;20046;-69
2023/10/28 11:48:33;;;;;;;9.80;5.20;;;11.50;99.90;;;;;;4953462;28;20045;-69
2023/10/28 11:51:00;;;;;;;8.52;5.30;;;11.50;99.90;;;;;;4972160;28;20097;-68
2023/10/28 11:53:27;;;;;;;10.45;5.03;;;11.50;99.90;;;;;;4968947;28;20066;-68
2023/10/28 11:55:54;;;;;;;10.32;5.65;;;11.60;99.90;;;;;;4960183;28;20066;-69
2023/10/28 11:58:22;;;;;;;8.88;5.38;;;11.70;99.90;;;;;;4968660;28;20486;-67
2023/10/28 12:00:52;;;;;;;9.75;5.55;;;11.60;99.90;;;;;;4966093;28;20079;-68
2023/10/28 12:03:19;;;;;;;10.15;4.20;;;11.60;99.90;;;;;;4982304;28;20043;-69
2023/10/28 12:05:44;;;;;;;10.07;5.88;;;11.70;99.90;;;;;;4970659;28;20046;-72
2023/10/28 12:08:11;;;;;;;10.90;5.22;;;11.70;99.90;;;;;;4976604;28;20332;-67
2023/10/28 12:10:44;;;;;;;12.75;4.70;;;11.70;99.90;;;;;;4954406;28;20046;-70
2023/10/28 12:13:11;;;;;;;7.15;4.75;;;11.70;99.90;;;;;;4920535;28;20046;-69
2023/10/28 12:15:37;;;;;;;10.57;4.78;;;11.80;99.90;;;;;;4973997;28;20065;-70
2023/10/28 12:18:03;;;;;;;10.18;5.18;;;11.90;99.90;;;;;;4959110;28;20078;-68
2023/10/28 12:20:29;;;;;;;11.63;4.70;;;11.80;99.90;;;;;;4975482;28;20081;-68
2023/10/28 12:22:56;;;;;;;10.82;4.95;;;11.80;99.90;;;;;;4959656;28;20054;-69
2023/10/28 12:25:23;;;;;;;7.30;4.65;;;11.80;99.90;;;;;;4962253;28;20407;-72
2023/10/28 12:27:50;;;;;;;6.95;4.40;;;11.90;99.90;;;;;;4963007;28;20039;-70
2023/10/28 12:30:16;;;;;;;8.23;4.47;;;11.80;99.90;;;;;;4985176;28;20426;-70
2023/10/28 12:32:42;;;;;;;11.90;5.07;;;11.80;99.90;;;;;;4965293;28;20344;-69
2023/10/28 12:35:08;;;;;;;7.78;4.28;;;11.80;99.90;;;;;;4952474;28;20122;-70
2023/10/28 12:37:34;;;;;;;5.95;4.00;;;11.80;99.90;;;;;;4951950;28;20037;-69